createdAt,value
2022-08-28T00:00:08.310Z,8.30
2022-08-28T00:00:42.001Z,9.82
2022-08-28T00:01:16.867Z,7.13
2022-08-28T00:01:49.022Z,7.40
2022-08-28T00:02:21.340Z,7.07
2022-08-28T00:02:56.520Z,7.63
2022-08-28T00:03:30.375Z,5.85
2022-08-28T00:04:02.966Z,6.82
2022-08-28T00:04:38.743Z,6.93
2022-08-28T00:05:15.391Z,6.63
2022-08-28T00:05:47.850Z,7.07
2022-08-28T00:06:22.672Z,7.53
2022-08-28T00:06:54.963Z,6.28
2022-08-28T00:07:27.258Z,7.15
2022-08-28T00:08:02.684Z,6.70
2022-08-28T00:08:35.426Z,5.68
2022-08-28T00:09:08.247Z,5.68
2022-08-28T00:09:46.190Z,7.40
2022-08-28T00:10:22.341Z,6.07
2022-08-28T00:10:54.889Z,6.65
2022-08-28T00:11:29.672Z,7.63
2022-08-28T00:12:01.965Z,7.88
2022-08-28T00:12:35.657Z,6.03
2022-08-28T00:13:15.554Z,6.10
2022-08-28T00:13:47.939Z,6.32
2022-08-28T00:14:21.227Z,6.45
2022-08-28T00:14:56.184Z,5.95
2022-08-28T00:15:33.456Z,4.70
2022-08-28T00:16:06.700Z,6.40
2022-08-28T00:16:41.567Z,5.93
2022-08-28T00:17:13.774Z,6.57
2022-08-28T00:17:46.087Z,5.68
2022-08-28T00:18:21.341Z,6.68
2022-08-28T00:18:53.502Z,5.53
2022-08-28T00:19:25.899Z,5.82
2022-08-28T00:20:00.678Z,5.43
2022-08-28T00:20:35.933Z,5.50
2022-08-28T00:21:10.763Z,6.50
2022-08-28T00:21:43.047Z,5.45
2022-08-28T00:22:15.314Z,5.18
2022-08-28T00:22:48.676Z,5.93
2022-08-28T00:23:23.551Z,5.68
2022-08-28T00:23:57.457Z,6.00
2022-08-28T00:24:29.708Z,5.65
2022-08-28T00:25:04.556Z,7.32
2022-08-28T00:25:37.564Z,5.38
2022-08-28T00:26:10.159Z,6.40
2022-08-28T00:26:58.127Z,5.65
2022-08-28T00:27:45.341Z,5.47
2022-08-28T00:28:24.334Z,6.63
2022-08-28T00:28:56.790Z,4.78
2022-08-28T00:29:29.801Z,5.25
2022-08-28T00:30:02.117Z,7.07
2022-08-28T00:30:40.225Z,5.55
2022-08-28T00:31:12.664Z,5.75
2022-08-28T00:31:47.641Z,6.07
2022-08-28T00:32:23.667Z,6.78
2022-08-28T00:33:01.229Z,6.05
2022-08-28T00:33:35.027Z,5.18
2022-08-28T00:34:08.499Z,6.80
2022-08-28T00:34:43.594Z,5.72
2022-08-28T00:35:17.636Z,6.65
2022-08-28T00:35:55.908Z,5.47
2022-08-28T00:36:29.047Z,5.20
2022-08-28T00:37:01.272Z,6.07
2022-08-28T00:37:33.839Z,5.45
2022-08-28T00:38:08.975Z,6.50
2022-08-28T00:38:42.121Z,5.10
2022-08-28T00:39:14.959Z,4.97
2022-08-28T00:39:53.881Z,5.53
2022-08-28T00:40:32.437Z,5.20
2022-08-28T00:41:08.002Z,4.82
2022-08-28T00:41:41.266Z,5.57
2022-08-28T00:42:13.860Z,5.45
2022-08-28T00:42:50.050Z,5.45
2022-08-28T00:43:33.741Z,5.97
2022-08-28T00:44:13.828Z,6.18
2022-08-28T00:44:46.410Z,6.00
2022-08-28T00:45:20.356Z,5.82
2022-08-28T00:45:55.338Z,6.22
2022-08-28T00:46:27.546Z,5.60
2022-08-28T00:47:00.376Z,5.93
2022-08-28T00:47:35.500Z,5.75
2022-08-28T00:48:08.315Z,5.28
2022-08-28T00:48:41.576Z,5.30
2022-08-28T00:49:18.828Z,6.30
2022-08-28T00:49:53.166Z,6.07
2022-08-28T00:50:28.369Z,5.80
2022-08-28T00:51:18.933Z,5.38
2022-08-28T00:52:08.211Z,5.30
2022-08-28T00:52:49.120Z,5.97
2022-08-28T00:53:23.491Z,5.28
2022-08-28T00:54:01.390Z,5.82
2022-08-28T00:54:39.919Z,6.93
2022-08-28T00:55:20.038Z,4.35
2022-08-28T00:55:52.246Z,5.63
2022-08-28T00:56:25.725Z,6.30
2022-08-28T00:57:00.596Z,5.90
2022-08-28T00:57:36.291Z,5.70
2022-08-28T00:58:13.224Z,5.18
2022-08-28T00:58:47.323Z,5.75
2022-08-28T00:59:23.446Z,6.10
2022-08-28T00:59:58.298Z,5.43
2022-08-28T01:00:33.882Z,5.13
2022-08-28T01:01:06.583Z,5.70
2022-08-28T01:01:41.700Z,5.88
2022-08-28T01:02:14.173Z,6.07
2022-08-28T01:02:46.759Z,5.90
2022-08-28T01:03:26.434Z,6.70
2022-08-28T01:03:58.736Z,5.07
2022-08-28T01:04:32.519Z,5.43
2022-08-28T01:05:10.456Z,6.20
2022-08-28T01:05:43.718Z,6.28
2022-08-28T01:06:20.680Z,5.60
2022-08-28T01:06:58.255Z,5.20
2022-08-28T01:07:30.651Z,5.10
2022-08-28T01:08:04.522Z,6.18
2022-08-28T01:08:43.597Z,4.68
2022-08-28T01:09:21.008Z,5.50
2022-08-28T01:09:55.125Z,6.85
2022-08-28T01:10:33.542Z,5.50
2022-08-28T01:11:07.533Z,5.75
2022-08-28T01:11:42.086Z,5.90
2022-08-28T01:12:20.807Z,5.82
2022-08-28T01:12:54.895Z,5.03
2022-08-28T01:13:28.039Z,5.88
2022-08-28T01:14:05.485Z,5.43
2022-08-28T01:14:41.208Z,5.82
2022-08-28T01:15:19.458Z,5.22
2022-08-28T01:15:52.055Z,5.07
2022-08-28T01:16:31.605Z,5.53
2022-08-28T01:17:10.730Z,6.38
2022-08-28T01:17:50.137Z,5.40
2022-08-28T01:18:22.922Z,7.40
2022-08-28T01:18:58.119Z,5.13
2022-08-28T01:19:37.467Z,6.32
2022-08-28T01:20:16.014Z,5.43
2022-08-28T01:20:55.112Z,5.05
2022-08-28T01:21:37.775Z,5.70
2022-08-28T01:22:21.220Z,5.35
2022-08-28T01:23:01.840Z,5.50
2022-08-28T01:23:58.207Z,5.15
2022-08-28T01:24:31.474Z,5.97
2022-08-28T01:25:07.427Z,6.50
2022-08-28T01:25:43.667Z,5.70
2022-08-28T01:26:15.921Z,5.75
2022-08-28T01:26:48.107Z,5.50
2022-08-28T01:27:21.814Z,5.72
2022-08-28T01:28:00.257Z,5.00
2022-08-28T01:28:32.555Z,5.65
2022-08-28T01:29:05.292Z,5.97
2022-08-28T01:29:40.206Z,5.68
2022-08-28T01:30:16.891Z,6.05
2022-08-28T01:30:51.917Z,5.80
2022-08-28T01:31:25.427Z,5.10
2022-08-28T01:31:57.889Z,5.60
2022-08-28T01:32:36.609Z,5.68
2022-08-28T01:33:08.900Z,6.35
2022-08-28T01:33:46.389Z,5.50
2022-08-28T01:34:21.354Z,7.15
2022-08-28T01:34:53.538Z,5.88
2022-08-28T01:35:28.764Z,6.60
2022-08-28T01:36:03.639Z,5.57
2022-08-28T01:36:37.029Z,5.60
2022-08-28T01:37:09.175Z,5.70
2022-08-28T01:37:42.304Z,6.43
2022-08-28T01:38:20.219Z,5.57
2022-08-28T01:39:05.182Z,6.50
2022-08-28T01:39:40.061Z,5.82
2022-08-28T01:40:17.762Z,5.40
2022-08-28T01:40:53.653Z,5.35
2022-08-28T01:41:29.682Z,5.38
2022-08-28T01:42:02.887Z,5.18
2022-08-28T01:42:37.136Z,5.05
2022-08-28T01:43:14.279Z,6.07
2022-08-28T01:43:46.561Z,6.82
2022-08-28T01:44:25.885Z,6.38
2022-08-28T01:45:00.625Z,5.53
2022-08-28T01:45:32.833Z,5.93
2022-08-28T01:46:06.312Z,6.05
2022-08-28T01:46:44.061Z,5.38
2022-08-28T01:47:16.829Z,5.60
2022-08-28T01:47:49.177Z,5.97
2022-08-28T01:48:29.083Z,5.95
2022-08-28T01:49:01.328Z,6.20
2022-08-28T01:49:34.823Z,5.20
2022-08-28T01:50:11.484Z,6.57
2022-08-28T01:50:45.353Z,6.38
2022-08-28T01:51:20.486Z,5.60
2022-08-28T01:52:00.828Z,6.35
2022-08-28T01:52:36.642Z,5.53
2022-08-28T01:53:12.446Z,5.72
2022-08-28T01:53:47.310Z,6.95
2022-08-28T01:54:22.045Z,6.72
2022-08-28T01:54:54.648Z,6.38
2022-08-28T01:55:30.951Z,5.53
2022-08-28T01:56:08.748Z,6.30
2022-08-28T01:56:42.323Z,6.60
2022-08-28T01:57:17.990Z,5.30
2022-08-28T01:57:54.163Z,5.72
2022-08-28T01:58:28.110Z,5.90
2022-08-28T01:59:08.141Z,6.40
2022-08-28T01:59:40.422Z,6.68
2022-08-28T02:00:15.260Z,6.10
2022-08-28T02:00:50.155Z,5.53
2022-08-28T02:01:23.055Z,5.60
2022-08-28T02:01:58.057Z,5.93
2022-08-28T02:02:31.876Z,5.82
2022-08-28T02:03:04.144Z,6.25
2022-08-28T02:03:36.377Z,6.88
2022-08-28T02:04:11.592Z,4.45
2022-08-28T02:04:47.944Z,5.47
2022-08-28T02:05:20.437Z,5.10
2022-08-28T02:05:55.287Z,5.90
2022-08-28T02:06:27.465Z,6.20
2022-08-28T02:07:00.106Z,6.68
2022-08-28T02:07:35.329Z,5.25
2022-08-28T02:08:08.369Z,6.55
2022-08-28T02:08:41.074Z,6.07
2022-08-28T02:09:15.909Z,7.20
2022-08-28T02:09:50.607Z,5.72
2022-08-28T02:10:25.461Z,6.47
2022-08-28T02:11:00.818Z,6.63
2022-08-28T02:11:33.175Z,6.55
2022-08-28T02:12:07.044Z,6.25
2022-08-28T02:12:43.230Z,5.55
2022-08-28T02:13:15.589Z,5.78
2022-08-28T02:13:51.443Z,5.30
2022-08-28T02:14:29.267Z,5.78
2022-08-28T02:15:01.457Z,6.13
2022-08-28T02:15:38.395Z,7.22
2022-08-28T02:16:11.101Z,7.10
2022-08-28T02:16:43.474Z,6.05
2022-08-28T02:17:18.178Z,5.53
2022-08-28T02:17:50.414Z,5.78
2022-08-28T02:18:22.979Z,5.97
2022-08-28T02:18:57.988Z,5.82
2022-08-28T02:19:32.112Z,6.00
2022-08-28T02:20:05.710Z,6.15
2022-08-28T02:20:43.041Z,5.90
2022-08-28T02:21:15.329Z,7.90
2022-08-28T02:21:47.654Z,6.70
2022-08-28T02:22:22.391Z,5.85
2022-08-28T02:22:55.196Z,6.15
2022-08-28T02:23:27.611Z,5.78
2022-08-28T02:24:02.594Z,7.60
2022-08-28T02:24:34.855Z,5.85
2022-08-28T02:25:14.032Z,5.40
2022-08-28T02:25:49.901Z,5.55
2022-08-28T02:26:23.618Z,6.55
2022-08-28T02:26:55.838Z,6.38
2022-08-28T02:27:28.058Z,6.38
2022-08-28T02:28:02.957Z,6.53
2022-08-28T02:28:35.150Z,5.80
2022-08-28T02:29:07.398Z,7.30
2022-08-28T02:29:42.409Z,6.22
2022-08-28T02:30:18.187Z,5.30
2022-08-28T02:30:50.448Z,6.43
2022-08-28T02:31:25.254Z,6.63
2022-08-28T02:31:57.616Z,7.63
2022-08-28T02:32:29.933Z,5.40
2022-08-28T02:33:04.773Z,6.45
2022-08-28T02:33:38.465Z,6.20
2022-08-28T02:34:11.248Z,7.18
2022-08-28T02:34:46.169Z,7.35
2022-08-28T02:35:20.036Z,7.13
2022-08-28T02:35:53.071Z,8.23
2022-08-28T02:36:27.825Z,7.45
2022-08-28T02:36:59.983Z,7.22
2022-08-28T02:37:32.169Z,5.50
2022-08-28T02:38:07.208Z,5.70
2022-08-28T02:38:39.566Z,6.40
2022-08-28T02:39:12.118Z,6.82
2022-08-28T02:39:46.937Z,7.90
2022-08-28T02:40:23.803Z,6.32
2022-08-28T02:40:56.143Z,5.50
2022-08-28T02:41:31.460Z,5.43
2022-08-28T02:42:03.986Z,5.72
2022-08-28T02:42:36.147Z,5.65
2022-08-28T02:43:10.974Z,6.20
2022-08-28T02:43:43.218Z,7.28
2022-08-28T02:44:15.347Z,5.93
2022-08-28T02:44:50.052Z,6.78
2022-08-28T02:45:22.330Z,6.65
2022-08-28T02:45:54.497Z,7.15
2022-08-28T02:46:29.358Z,6.72
2022-08-28T02:47:01.682Z,6.65
2022-08-28T02:47:33.808Z,6.22
2022-08-28T02:48:15.590Z,7.20
2022-08-28T02:48:50.457Z,6.45
2022-08-28T02:49:23.234Z,5.55
2022-08-28T02:49:58.078Z,6.22
2022-08-28T02:50:31.616Z,6.45
2022-08-28T02:51:06.564Z,6.68
2022-08-28T02:51:41.357Z,5.40
2022-08-28T02:52:13.697Z,6.35
2022-08-28T02:52:46.671Z,5.53
2022-08-28T02:53:23.819Z,7.10
2022-08-28T02:53:56.463Z,5.75
2022-08-28T02:54:28.662Z,8.05
2022-08-28T02:55:03.376Z,6.15
2022-08-28T02:55:39.912Z,6.65
2022-08-28T02:56:12.368Z,6.55
2022-08-28T02:56:47.150Z,6.20
2022-08-28T02:57:19.307Z,6.03
2022-08-28T02:57:52.855Z,5.40
2022-08-28T02:58:28.590Z,6.43
2022-08-28T02:59:00.853Z,6.80
2022-08-28T02:59:33.123Z,6.95
2022-08-28T03:00:06.451Z,6.68
2022-08-28T03:00:42.208Z,5.90
2022-08-28T03:01:14.511Z,5.68
2022-08-28T03:01:46.843Z,6.72
2022-08-28T03:02:21.799Z,6.75
2022-08-28T03:02:55.243Z,6.63
2022-08-28T03:03:28.181Z,6.25
2022-08-28T03:04:05.496Z,7.00
2022-08-28T03:04:38.575Z,5.78
2022-08-28T03:05:11.542Z,6.38
2022-08-28T03:05:46.355Z,7.22
2022-08-28T03:06:18.660Z,6.78
2022-08-28T03:06:51.188Z,7.18
2022-08-28T03:07:25.987Z,5.90
2022-08-28T03:07:58.264Z,7.15
2022-08-28T03:08:32.117Z,8.68
2022-08-28T03:09:07.205Z,6.28
2022-08-28T03:09:40.382Z,7.07
2022-08-28T03:10:13.479Z,6.35
2022-08-28T03:10:50.810Z,5.28
2022-08-28T03:11:23.516Z,6.45
2022-08-28T03:11:55.835Z,6.43
2022-08-28T03:12:30.640Z,5.60
2022-08-28T03:13:02.798Z,6.53
2022-08-28T03:13:35.473Z,6.03
2022-08-28T03:14:10.576Z,6.65
2022-08-28T03:14:42.937Z,6.10
2022-08-28T03:15:15.172Z,6.50
2022-08-28T03:15:55.525Z,5.93
2022-08-28T03:16:28.350Z,6.95
2022-08-28T03:17:01.485Z,6.05
2022-08-28T03:17:37.032Z,5.93
2022-08-28T03:18:11.335Z,5.53
2022-08-28T03:18:46.351Z,6.50
2022-08-28T03:19:19.157Z,5.93
2022-08-28T03:19:52.318Z,6.57
2022-08-28T03:20:27.206Z,6.65
2022-08-28T03:20:59.659Z,5.93
2022-08-28T03:21:31.834Z,6.55
2022-08-28T03:22:06.906Z,6.00
2022-08-28T03:22:54.295Z,6.05
2022-08-28T03:23:26.482Z,5.97
2022-08-28T03:23:58.687Z,6.35
2022-08-28T03:24:30.945Z,6.32
2022-08-28T03:25:04.107Z,7.07
2022-08-28T03:25:38.861Z,7.93
2022-08-28T03:26:16.701Z,6.03
2022-08-28T03:26:49.283Z,6.75
2022-08-28T03:27:23.992Z,6.55
2022-08-28T03:27:56.522Z,6.82
2022-08-28T03:28:30.800Z,6.53
2022-08-28T03:29:06.087Z,6.65
2022-08-28T03:29:38.451Z,6.50
2022-08-28T03:30:11.828Z,6.00
2022-08-28T03:30:46.668Z,6.28
2022-08-28T03:31:21.687Z,7.18
2022-08-28T03:31:56.675Z,6.22
2022-08-28T03:32:29.391Z,6.70
2022-08-28T03:33:01.765Z,6.80
2022-08-28T03:33:37.002Z,7.28
2022-08-28T03:34:09.684Z,8.23
2022-08-28T03:34:41.841Z,8.15
2022-08-28T03:35:14.054Z,7.40
2022-08-28T03:35:49.024Z,6.22
2022-08-28T03:36:25.865Z,7.43
2022-08-28T03:36:58.050Z,7.65
2022-08-28T03:37:30.205Z,6.13
2022-08-28T03:38:04.982Z,6.60
2022-08-28T03:38:37.211Z,6.97
2022-08-28T03:39:12.024Z,7.72
2022-08-28T03:39:44.252Z,6.53
2022-08-28T03:40:16.887Z,7.32
2022-08-28T03:40:51.834Z,8.10
2022-08-28T03:41:30.201Z,6.05
2022-08-28T03:42:02.439Z,7.45
2022-08-28T03:42:35.275Z,6.30
2022-08-28T03:43:10.080Z,6.78
2022-08-28T03:43:42.740Z,6.50
2022-08-28T03:44:15.917Z,7.18
2022-08-28T03:44:49.292Z,8.38
2022-08-28T03:45:24.871Z,8.13
2022-08-28T03:46:00.429Z,6.35
2022-08-28T03:46:34.037Z,7.68
2022-08-28T03:47:09.217Z,7.25
2022-08-28T03:47:43.128Z,7.15
2022-08-28T03:48:15.622Z,7.85
2022-08-28T03:48:51.234Z,6.75
2022-08-28T03:49:23.434Z,7.03
2022-08-28T03:49:56.630Z,6.38
2022-08-28T03:50:31.748Z,7.60
2022-08-28T03:51:08.203Z,7.00
2022-08-28T03:51:44.226Z,7.50
2022-08-28T03:52:16.427Z,7.20
2022-08-28T03:52:48.707Z,7.32
2022-08-28T03:53:23.670Z,7.75
2022-08-28T03:53:56.526Z,7.00
2022-08-28T03:54:31.802Z,8.02
2022-08-28T03:55:07.734Z,7.65
2022-08-28T03:55:41.327Z,7.13
2022-08-28T03:56:22.450Z,7.15
2022-08-28T03:56:57.208Z,7.60
2022-08-28T03:57:30.016Z,6.60
2022-08-28T03:58:04.884Z,7.93
2022-08-28T03:58:38.594Z,6.93
2022-08-28T03:59:10.758Z,8.82
2022-08-28T03:59:45.539Z,7.80
2022-08-28T04:00:19.253Z,7.88
2022-08-28T04:00:51.730Z,7.35
2022-08-28T04:01:26.610Z,7.78
2022-08-28T04:01:58.849Z,7.13
2022-08-28T04:02:31.506Z,9.20
2022-08-28T04:03:06.942Z,8.15
2022-08-28T04:03:39.267Z,7.85
2022-08-28T04:04:11.451Z,8.85
2022-08-28T04:04:46.254Z,7.57
2022-08-28T04:05:18.643Z,7.65
2022-08-28T04:05:52.014Z,6.97
2022-08-28T04:06:27.685Z,7.53
2022-08-28T04:06:59.879Z,8.13
2022-08-28T04:07:32.115Z,8.02
2022-08-28T04:08:07.784Z,7.10
2022-08-28T04:08:40.572Z,7.88
2022-08-28T04:09:12.914Z,8.18
2022-08-28T04:09:47.795Z,7.32
2022-08-28T04:10:20.192Z,7.20
2022-08-28T04:10:52.865Z,7.55
2022-08-28T04:11:27.791Z,7.32
2022-08-28T04:12:02.822Z,8.50
2022-08-28T04:12:36.153Z,7.13
2022-08-28T04:13:11.278Z,7.50
2022-08-28T04:13:43.523Z,8.32
2022-08-28T04:14:16.985Z,7.32
2022-08-28T04:14:51.765Z,8.75
2022-08-28T04:15:24.005Z,6.90
2022-08-28T04:15:58.437Z,7.43
2022-08-28T04:16:33.203Z,7.40
2022-08-28T04:17:06.049Z,6.72
2022-08-28T04:17:39.110Z,7.97
2022-08-28T04:18:15.110Z,7.35
2022-08-28T04:18:50.006Z,7.38
2022-08-28T04:19:22.303Z,8.32
2022-08-28T04:19:57.373Z,7.78
2022-08-28T04:20:29.909Z,7.95
2022-08-28T04:21:05.818Z,8.50
2022-08-28T04:21:40.654Z,8.13
2022-08-28T04:22:13.007Z,7.97
2022-08-28T04:22:45.249Z,9.27
2022-08-28T04:23:19.986Z,8.07
2022-08-28T04:23:52.361Z,8.85
2022-08-28T04:24:24.687Z,8.15
2022-08-28T04:24:59.455Z,7.80
2022-08-28T04:25:32.057Z,8.40
2022-08-28T04:26:05.055Z,8.75
2022-08-28T04:26:39.887Z,8.05
2022-08-28T04:27:15.137Z,8.60
2022-08-28T04:27:47.858Z,8.85
2022-08-28T04:28:22.830Z,8.77
2022-08-28T04:28:56.188Z,10.05
2022-08-28T04:29:30.332Z,9.30
2022-08-28T04:30:05.144Z,9.43
2022-08-28T04:30:41.420Z,9.25
2022-08-28T04:31:15.072Z,9.48
2022-08-28T04:31:49.970Z,8.90
2022-08-28T04:32:22.860Z,8.48
2022-08-28T04:32:54.995Z,9.60
2022-08-28T04:33:31.194Z,9.77
2022-08-28T04:34:06.021Z,8.73
2022-08-28T04:34:38.280Z,8.73
2022-08-28T04:35:15.008Z,10.63
2022-08-28T04:35:47.270Z,9.10
2022-08-28T04:36:19.959Z,9.25
2022-08-28T04:36:55.558Z,8.73
2022-08-28T04:37:27.889Z,10.27
2022-08-28T04:38:00.205Z,10.02
2022-08-28T04:38:35.059Z,9.98
2022-08-28T04:39:08.795Z,9.05
2022-08-28T04:39:40.968Z,9.10
2022-08-28T04:40:16.103Z,9.10
2022-08-28T04:40:48.463Z,9.35
2022-08-28T04:41:20.865Z,10.13
2022-08-28T04:41:58.297Z,8.82
2022-08-28T04:42:33.019Z,9.90
2022-08-28T04:43:05.299Z,8.98
2022-08-28T04:43:40.138Z,9.80
2022-08-28T04:44:12.468Z,9.90
2022-08-28T04:44:44.629Z,8.75
2022-08-28T04:45:19.599Z,9.75
2022-08-28T04:45:51.855Z,9.15
2022-08-28T04:46:24.719Z,8.73
2022-08-28T04:46:59.543Z,9.68
2022-08-28T04:47:35.138Z,9.90
2022-08-28T04:48:13.089Z,9.88
2022-08-28T04:48:48.634Z,9.50
2022-08-28T04:49:21.026Z,9.90
2022-08-28T04:49:53.533Z,8.98
2022-08-28T04:50:28.650Z,10.07
2022-08-28T04:51:00.849Z,9.50
2022-08-28T04:51:33.438Z,9.02
2022-08-28T04:52:08.474Z,8.45
2022-08-28T04:52:40.742Z,11.88
2022-08-28T04:53:14.090Z,9.02
2022-08-28T04:53:48.875Z,8.80
2022-08-28T04:54:21.443Z,9.05
2022-08-28T04:54:53.642Z,10.43
2022-08-28T04:55:27.872Z,10.15
2022-08-28T04:56:20.714Z,8.38
2022-08-28T04:56:52.996Z,11.27
2022-08-28T04:57:27.894Z,8.75
2022-08-28T04:58:02.658Z,9.75
2022-08-28T04:58:35.106Z,9.35
2022-08-28T04:59:10.251Z,9.15
2022-08-28T04:59:45.147Z,10.48
2022-08-28T05:00:17.759Z,9.60
2022-08-28T05:00:52.654Z,10.48
2022-08-28T05:01:25.825Z,9.52
2022-08-28T05:01:58.194Z,9.95
2022-08-28T05:02:33.114Z,9.52
2022-08-28T05:03:05.780Z,10.02
2022-08-28T05:03:38.033Z,9.00
2022-08-28T05:04:14.330Z,8.15
2022-08-28T05:04:47.417Z,8.38
2022-08-28T05:05:20.012Z,9.48
2022-08-28T05:05:57.868Z,10.75
2022-08-28T05:06:31.729Z,9.27
2022-08-28T05:07:06.695Z,8.52
2022-08-28T05:07:38.909Z,8.48
2022-08-28T05:08:15.871Z,9.30
2022-08-28T05:08:50.734Z,9.00
2022-08-28T05:09:22.940Z,8.65
2022-08-28T05:09:55.145Z,9.65
2022-08-28T05:10:30.137Z,9.77
2022-08-28T05:11:10.958Z,9.00
2022-08-28T05:11:46.517Z,9.20
2022-08-28T05:12:19.838Z,9.30
2022-08-28T05:12:54.889Z,10.55
2022-08-28T05:13:29.630Z,10.88
2022-08-28T05:14:05.576Z,10.30
2022-08-28T05:14:37.858Z,8.55
2022-08-28T05:15:11.339Z,9.18
2022-08-28T05:15:46.123Z,9.73
2022-08-28T05:16:22.110Z,8.80
2022-08-28T05:16:55.588Z,9.07
2022-08-28T05:17:27.919Z,8.35
2022-08-28T05:18:07.255Z,10.75
2022-08-28T05:18:39.615Z,8.27
2022-08-28T05:19:15.156Z,9.10
2022-08-28T05:19:48.323Z,8.38
2022-08-28T05:20:23.130Z,9.55
2022-08-28T05:20:55.351Z,9.98
2022-08-28T05:21:28.359Z,10.27
2022-08-28T05:22:03.148Z,9.02
2022-08-28T05:22:35.657Z,9.27
2022-08-28T05:23:09.403Z,8.70
2022-08-28T05:23:44.577Z,8.68
2022-08-28T05:24:17.138Z,9.88
2022-08-28T05:24:49.287Z,8.52
2022-08-28T05:25:24.089Z,9.32
2022-08-28T05:25:56.579Z,9.23
2022-08-28T05:26:29.901Z,8.98
2022-08-28T05:27:08.767Z,9.55
2022-08-28T05:27:41.370Z,10.23
2022-08-28T05:28:17.074Z,10.07
2022-08-28T05:28:56.361Z,9.57
2022-08-28T05:29:28.524Z,9.23
2022-08-28T05:30:02.214Z,9.07
2022-08-28T05:30:37.397Z,8.95
2022-08-28T05:31:10.965Z,10.02
2022-08-28T05:31:43.295Z,8.90
2022-08-28T05:32:18.726Z,8.38
2022-08-28T05:32:50.881Z,8.85
2022-08-28T05:33:23.098Z,10.40
2022-08-28T05:33:58.437Z,9.60
2022-08-28T05:34:31.830Z,9.88
2022-08-28T05:35:04.762Z,10.23
2022-08-28T05:35:41.554Z,10.23
2022-08-28T05:36:15.833Z,10.38
2022-08-28T05:36:48.834Z,9.90
2022-08-28T05:37:23.618Z,11.68
2022-08-28T05:37:56.036Z,9.35
2022-08-28T05:38:28.746Z,9.18
2022-08-28T05:39:05.679Z,10.52
2022-08-28T05:39:37.927Z,11.45
2022-08-28T05:40:11.011Z,9.20
2022-08-28T05:40:48.290Z,9.35
2022-08-28T05:41:21.838Z,9.45
2022-08-28T05:41:56.672Z,9.55
2022-08-28T05:42:30.585Z,12.95
2022-08-28T05:43:03.590Z,10.10
2022-08-28T05:43:39.283Z,8.85
2022-08-28T05:44:16.234Z,9.98
2022-08-28T05:44:54.677Z,10.95
2022-08-28T05:45:27.115Z,13.88
2022-08-28T05:46:01.279Z,10.82
2022-08-28T05:46:36.955Z,11.05
2022-08-28T05:47:09.351Z,10.73
2022-08-28T05:47:41.566Z,11.88
2022-08-28T05:48:16.423Z,11.43
2022-08-28T05:48:49.538Z,13.13
2022-08-28T05:49:25.031Z,12.52
2022-08-28T05:49:57.187Z,11.95
2022-08-28T05:50:29.388Z,9.75
2022-08-28T05:51:10.109Z,11.80
2022-08-28T05:51:43.192Z,10.90
2022-08-28T05:52:16.071Z,10.60
2022-08-28T05:52:50.848Z,9.75
2022-08-28T05:53:23.436Z,9.57
2022-08-28T05:53:57.770Z,9.85
2022-08-28T05:54:32.883Z,9.75
2022-08-28T05:55:06.809Z,11.50
2022-08-28T05:55:40.576Z,11.13
2022-08-28T05:56:18.509Z,10.38
2022-08-28T05:56:50.699Z,10.57
2022-08-28T05:57:22.893Z,9.63
2022-08-28T05:58:17.639Z,9.52
2022-08-28T05:58:49.937Z,10.50
2022-08-28T05:59:27.315Z,9.00
2022-08-28T05:59:59.482Z,10.68
2022-08-28T06:00:32.807Z,9.55
2022-08-28T06:01:10.780Z,11.95
2022-08-28T06:01:48.120Z,13.05
2022-08-28T06:02:20.341Z,12.25
2022-08-28T06:02:52.628Z,12.40
2022-08-28T06:03:27.459Z,9.82
2022-08-28T06:04:02.443Z,10.93
2022-08-28T06:04:37.510Z,10.18
2022-08-28T06:05:12.640Z,11.07
2022-08-28T06:05:45.514Z,9.68
2022-08-28T06:06:20.304Z,10.38
2022-08-28T06:06:53.265Z,10.80
2022-08-28T06:07:28.072Z,11.50
2022-08-28T06:08:00.489Z,11.75
2022-08-28T06:08:32.830Z,11.55
2022-08-28T06:09:10.530Z,11.40
2022-08-28T06:09:43.887Z,12.27
2022-08-28T06:10:16.189Z,10.88
2022-08-28T06:10:51.171Z,10.40
2022-08-28T06:11:23.607Z,10.15
2022-08-28T06:12:02.474Z,10.43
2022-08-28T06:12:34.737Z,9.55
2022-08-28T06:13:07.126Z,10.45
2022-08-28T06:13:42.518Z,10.38
2022-08-28T06:14:18.370Z,10.48
2022-08-28T06:14:55.855Z,11.38
2022-08-28T06:15:29.181Z,11.55
2022-08-28T06:16:01.422Z,10.32
2022-08-28T06:16:36.414Z,9.30
2022-08-28T06:17:08.838Z,9.85
2022-08-28T06:17:41.041Z,10.18
2022-08-28T06:18:16.506Z,10.55
2022-08-28T06:18:48.952Z,10.82
2022-08-28T06:19:23.177Z,11.23
2022-08-28T06:19:57.993Z,10.45
2022-08-28T06:20:30.234Z,9.73
2022-08-28T06:21:02.963Z,10.18
2022-08-28T06:21:37.950Z,11.63
2022-08-28T06:22:12.408Z,11.13
2022-08-28T06:22:44.612Z,10.70
2022-08-28T06:23:24.232Z,10.15
2022-08-28T06:23:57.065Z,8.55
2022-08-28T06:24:33.093Z,9.55
2022-08-28T06:25:08.171Z,11.77
2022-08-28T06:25:41.486Z,10.98
2022-08-28T06:26:18.591Z,10.60
2022-08-28T06:26:52.155Z,10.13
2022-08-28T06:27:25.365Z,11.13
2022-08-28T06:28:00.311Z,10.10
2022-08-28T06:28:33.135Z,11.45
2022-08-28T06:29:08.044Z,12.45
2022-08-28T06:29:43.473Z,11.32
2022-08-28T06:30:18.369Z,11.10
2022-08-28T06:31:18.510Z,11.65
2022-08-28T06:31:48.921Z,10.05
2022-08-28T06:32:21.263Z,11.63
2022-08-28T06:32:53.485Z,10.93
2022-08-28T06:33:28.331Z,11.70
2022-08-28T06:34:01.595Z,11.30
2022-08-28T06:34:36.380Z,10.48
2022-08-28T06:35:08.755Z,10.63
2022-08-28T06:35:43.345Z,10.70
2022-08-28T06:36:18.115Z,10.98
2022-08-28T06:36:53.823Z,10.95
2022-08-28T06:37:26.734Z,11.45
2022-08-28T06:38:01.985Z,10.48
2022-08-28T06:38:34.529Z,10.45
2022-08-28T06:39:07.449Z,11.27
2022-08-28T06:39:42.280Z,10.77
2022-08-28T06:40:15.018Z,10.55
2022-08-28T06:40:53.260Z,12.00
2022-08-28T06:41:28.549Z,11.10
2022-08-28T06:42:02.574Z,12.40
2022-08-28T06:42:34.758Z,10.85
2022-08-28T06:43:09.873Z,11.55
2022-08-28T06:43:42.179Z,13.50
2022-08-28T06:44:19.748Z,11.57
2022-08-28T06:44:54.533Z,11.88
2022-08-28T06:45:29.403Z,11.30
2022-08-28T06:46:02.363Z,14.20
2022-08-28T06:46:38.494Z,13.50
2022-08-28T06:47:11.654Z,11.40
2022-08-28T06:47:43.938Z,12.00
2022-08-28T06:48:21.087Z,10.95
2022-08-28T06:48:53.510Z,12.13
2022-08-28T06:49:25.689Z,10.32
2022-08-28T06:50:00.546Z,13.00
2022-08-28T06:50:32.839Z,11.15
2022-08-28T06:51:07.762Z,10.63
2022-08-28T06:51:42.944Z,13.30
2022-08-28T06:52:15.261Z,14.48
2022-08-28T06:52:47.927Z,12.50
2022-08-28T06:53:25.233Z,14.13
2022-08-28T06:53:57.564Z,12.52
2022-08-28T06:54:31.168Z,12.68
2022-08-28T06:55:06.111Z,13.00
2022-08-28T06:55:39.147Z,12.00
2022-08-28T06:56:13.736Z,11.82
2022-08-28T06:57:00.634Z,12.35
2022-08-28T06:57:32.894Z,11.68
2022-08-28T06:58:06.290Z,11.52
2022-08-28T06:58:43.375Z,12.02
2022-08-28T06:59:22.417Z,11.18
2022-08-28T06:59:56.041Z,11.20
2022-08-28T07:00:33.538Z,12.80
2022-08-28T07:01:08.934Z,12.15
2022-08-28T07:01:43.744Z,14.82
2022-08-28T07:02:16.765Z,15.75
2022-08-28T07:02:49.135Z,14.23
2022-08-28T07:03:23.995Z,13.82
2022-08-28T07:03:59.546Z,13.70
2022-08-28T07:04:34.473Z,12.80
2022-08-28T07:05:08.820Z,14.88
2022-08-28T07:05:41.573Z,14.77
2022-08-28T07:06:17.670Z,15.10
2022-08-28T07:06:54.249Z,15.27
2022-08-28T07:07:31.826Z,11.48
2022-08-28T07:08:07.593Z,13.40
2022-08-28T07:08:41.223Z,12.40
2022-08-28T07:09:16.042Z,12.45
2022-08-28T07:09:48.400Z,14.27
2022-08-28T07:10:21.034Z,12.18
2022-08-28T07:10:55.995Z,13.38
2022-08-28T07:11:30.446Z,14.30
2022-08-28T07:12:05.538Z,12.88
2022-08-28T07:12:38.387Z,13.27
2022-08-28T07:13:10.567Z,10.40
2022-08-28T07:13:44.206Z,14.95
2022-08-28T07:14:19.329Z,12.10
2022-08-28T07:14:51.505Z,14.52
2022-08-28T07:15:23.701Z,14.65
2022-08-28T07:16:02.214Z,12.50
2022-08-28T07:16:38.468Z,13.93
2022-08-28T07:17:13.455Z,14.73
2022-08-28T07:17:45.726Z,15.15
2022-08-28T07:18:18.518Z,13.68
2022-08-28T07:18:53.310Z,13.05
2022-08-28T07:19:25.491Z,14.20
2022-08-28T07:19:57.841Z,14.80
2022-08-28T07:20:32.854Z,14.13
2022-08-28T07:21:11.603Z,15.40
2022-08-28T07:21:48.346Z,13.73
2022-08-28T07:22:20.665Z,15.27
2022-08-28T07:22:59.360Z,14.48
2022-08-28T07:23:35.397Z,16.77
2022-08-28T07:24:11.502Z,13.45
2022-08-28T07:24:43.671Z,10.95
2022-08-28T07:25:15.833Z,14.35
2022-08-28T07:25:50.531Z,13.10
2022-08-28T07:26:24.800Z,12.18
2022-08-28T07:26:59.676Z,12.23
2022-08-28T07:27:31.916Z,14.18
2022-08-28T07:28:04.442Z,12.23
2022-08-28T07:28:39.921Z,13.43
2022-08-28T07:29:13.116Z,13.68
2022-08-28T07:29:45.303Z,13.02
2022-08-28T07:30:20.194Z,12.70
2022-08-28T07:31:03.641Z,13.32
2022-08-28T07:31:38.571Z,15.38
2022-08-28T07:32:10.907Z,13.70
2022-08-28T07:32:43.675Z,13.48
2022-08-28T07:33:18.381Z,11.75
2022-08-28T07:33:54.031Z,12.57
2022-08-28T07:34:29.387Z,12.18
2022-08-28T07:35:01.536Z,14.07
2022-08-28T07:35:33.722Z,13.27